Floydada, Texas
Current Conditions -  °F | °C
As of 9:55 PM on Thursday 27 Nov 2014 (Local Time) from KPVW Reporting Station
Clear Clear  
Wind Chill: 35°   Ceiling: Unl
Heat Index: 41°   Visibility: 10mi
Dew Point: 31°   Wind: 8mph
Humidity: 69%   Direction: 220°SW
Pressure: 30.24"   Gusts: NA
Location:  33.98°N, 101.34°W
Report Text: KPVW 280355Z AUTO 22007KT 10SM CLR 05/00 A3024 RMK AO2 T00481004
Loading
Personal Weather Stations






























Interactive Weather Map New forecast layout! Learn more

10-Day Weather Forecast

Advertisements
Track Severe Weather on mobile